To NAV CANADA Home Page Login to a new session Search on AWWS site Feedback and Comments Disclaimer Vers la page française équivalente Tips FAQ What's new on the site To the Forecasts and Observations / NOTAM section To "File a Flight Plan" website Publications and other links Update of the User's profile FIC Telephone Numbers My Weather Data Folder Route Weather Data Regional Weather Data Local Weather Data To the Forecasts and Observations / NOTAM section
Request Generated 07/29/2015 at 00:33:12 UTC . Weather information available at that time is displayed.

METAR/TAF

STONY RAPIDS/SK    (show WxCam)

METAR CYSF 290000Z AUTO 33007KT 290V030 9SM FEW039 BKN065 BKN077
20/12 A2973 RMK SLP072 DENSITY ALT 1800FT=
METAR CYSF 282300Z AUTO 32006KT 310V010 9SM FEW042 OVC055 20/12 A2974
RMK SLP076 DENSITY ALT 1700FT=
METAR CYSF 282200Z AUTO 31007G15KT 280V350 9SM SCT039 BKN060 20/12
A2973 RMK SLP074 DENSITY ALT 1800FT=

TAF CYSF 282338Z 2900/2912 32008KT P6SM SCT040 BKN060 TEMPO 2900/2912
P6SM -SHRA BKN040
RMK FCST BASED ON AUTO OBS. NXT FCST BY 290600Z=
Your time UTC time
Weather data provided by Environment Canada and NAV CANADA